Data for 10/31/2007

Time Sea-Level Adjusted Pressure Absolute Pressure Temperature Relative Humidity Dew Point   
(mb) (inHg) (mb) (inHg) (C) (F) (%) (C) (F)
00:05 1026 30.3 855 25.25 0.5 32.8 87 -1.4 29.4
00:10 1026 30.3 855 25.25 0.3 32.6 88 -1.5 29.3
00:15 1026 30.3 855 25.25 0.3 32.5 88 -1.5 29.2
00:20 1026 30.3 855 25.25 0.2 32.4 88 -1.6 29.2
00:25 1026 30.3 855 25.25 0.2 32.3 87 -1.7 29
00:30 1026 30.3 855 25.25 0.2 32.3 87 -1.7 28.9
00:35 1026 30.3 855 25.25 0.2 32.4 88 -1.6 29.2
00:40 1026 30.3 855 25.25 0.2 32.3 88 -1.6 29.1
00:45 1026 30.3 855 25.25 0.1 32.1 89 -1.5 29.3
00:50 1026 30.3 855 25.25 -0.1 31.8 90 -1.6 29.1
00:55 1026 30.3 855 25.25 -0 31.9 87 -1.9 28.6
01:00 1026 30.3 855 25.25 0.3 32.5 87 -1.7 28.9
01:05 1026 30.3 855 25.25 0.1 32.1 85 -2.1 28.3
01:10 1026 30.3 855 25.25 0.3 32.5 85 -2 28.4
01:15 1026 30.3 855 25.25 0 32.1 84 -2.3 27.9
01:20 1026 30.3 855 25.25 0.3 32.6 80 -2.7 27.2
01:25 1026 30.3 855 25.25 0.1 32.2 84 -2.4 27.8
01:30 1026 30.3 855 25.25 -0.1 31.8 83 -2.7 27.1
01:35 1026 30.3 855 25.25 0.1 32.1 82 -2.7 27.1
01:40 1026 30.3 855 25.25 -0.1 31.7 82 -2.8 26.9
01:45 1026 30.3 855 25.25 -0.3 31.5 83 -2.9 26.7
01:50 1026 30.3 855 25.25 -0.3 31.5 83 -2.9 26.8
01:55 1026 30.3 855 25.25 -0.3 31.5 80 -3.3 26.1
02:00 1026 30.3 855 25.25 -0.1 31.8 82 -2.9 26.8
02:05 1026 30.3 855 25.25 -0.3 31.4 82 -3 26.5
02:10 1026 30.3 855 25.25 -0.4 31.3 79 -3.6 25.5
02:15 1026 30.3 855 25.25 -0.2 31.7 78 -3.5 25.7
02:20 1026 30.3 855 25.25 -0.2 31.7 80 -3.2 26.2
02:25 1026 30.3 855 25.25 -0.5 31.1 83 -3.1 26.5
02:30 1026 30.3 856 25.28 -0.8 30.5 83 -3.3 26.1
02:35 1026 30.3 855 25.25 -0.8 30.6 81 -3.7 25.3
02:40 1026 30.3 855 25.25 -0.6 31 82 -3.3 26
02:45 1026 30.3 855 25.25 -0.9 30.5 84 -3.3 26.1
02:50 1026 30.3 856 25.28 -0.9 30.3 80 -3.9 24.9
02:55 1026 30.3 855 25.25 -0.7 30.8 79 -3.8 25.1
03:00 1026 30.3 856 25.28 -0.7 30.7 80 -3.7 25.4
03:05 1026 30.3 856 25.28 -0.8 30.6 80 -3.8 25.1
03:10 1026 30.3 856 25.28 -0.7 30.7 81 -3.6 25.4
03:15 1026 30.3 856 25.28 -0.7 30.7 80 -3.8 25.2
03:20 1026 30.3 856 25.28 -0.9 30.4 82 -3.6 25.4
03:25 1026 30.3 856 25.28 -1.1 30.1 81 -4 24.9
03:30 1026 30.3 855 25.25 -0.9 30.4 80 -4 24.9
03:35 1026 30.3 855 25.25 -0.8 30.5 80 -3.9 24.9
03:40 1026 30.3 855 25.25 -0.9 30.4 80 -4 24.9
03:45 1026 30.3 855 25.25 -1.1 30.1 81 -3.9 25
03:50 1026 30.3 855 25.25 -1.2 29.8 81 -4.1 24.5
03:55 1026 30.3 855 25.25 -1.2 29.8 81 -4.1 24.7
04:00 1026 30.3 855 25.25 -1.2 29.8 77 -4.7 23.6
04:05 1026 30.3 855 25.25 -0.8 30.6 77 -4.3 24.3
04:10 1026 30.3 855 25.25 -0.9 30.3 79 -4.2 24.5
04:15 1026 30.3 855 25.25 -1.1 30 79 -4.4 24.1
04:20 1026 30.3 855 25.25 -1.1 30 78 -4.5 23.9
04:25 1026 30.3 855 25.25 -1.2 29.9 79 -4.3 24.2
04:30 1026 30.3 855 25.25 -1.3 29.6 79 -4.4 24
04:35 1026 30.3 855 25.25 -1.3 29.7 77 -4.8 23.3
04:40 1026 30.3 855 25.25 -1 30.2 76 -4.7 23.6
04:45 1026 30.3 855 25.25 -1 30.1 78 -4.4 24.1
04:50 1026 30.3 855 25.25 -1.2 29.9 78 -4.5 23.9
04:55 1026 30.3 855 25.25 -1.1 29.9 77 -4.6 23.7
05:00 1026 30.3 855 25.25 -1.2 29.9 78 -4.5 23.9
05:05 1026 30.3 855 25.25 -1.4 29.4 79 -4.6 23.7
05:10 1026 30.3 855 25.25 -1.4 29.4 78 -4.9 23.2
05:15 1026 30.3 855 25.25 -1.3 29.7 77 -4.9 23.2
05:20 1026 30.3 855 25.25 -1.3 29.6 78 -4.8 23.4
05:25 1026 30.3 855 25.25 -1.4 29.5 77 -4.8 23.3
05:30 1026 30.3 855 25.25 -1.3 29.6 76 -5.1 22.8
05:35 1026 30.3 855 25.25 -1.4 29.5 76 -5.1 22.8
05:40 1026 30.3 855 25.25 -1.4 29.5 75 -5.2 22.6
05:45 1026 30.3 855 25.25 -1.3 29.6 75 -5.2 22.6
05:50 1026 30.3 855 25.25 -1.4 29.5 76 -5.1 22.8
05:55 1026 30.3 855 25.25 -1.4 29.4 76 -5.1 22.8
06:00 1026 30.3 855 25.25 -1.4 29.4 76 -5.1 22.8
06:05 1026 30.3 855 25.25 -1.3 29.7 75 -5.1 22.9
06:10 1026 30.3 855 25.25 -1.3 29.6 77 -4.9 23.3
06:15 1026 30.3 855 25.25 -1.4 29.5 76 -5.1 22.8
06:20 1026 30.3 855 25.25 -1.3 29.7 76 -5.1 22.9
06:25 1026 30.3 855 25.25 -1.4 29.6 77 -4.9 23.2
06:30 1026 30.3 855 25.25 -1.9 28.6 80 -4.9 23.1
06:35 1026 30.3 855 25.25 -2.2 28 79 -5.4 22.3
06:40 1026 30.3 855 25.25 -2 28.3 78 -5.4 22.2
06:45 1026 30.3 855 25.25 -1.7 28.9 76 -5.4 22.2
06:50 1026 30.3 855 25.25 -1.6 29.2 76 -5.3 22.4
06:55 1026 30.3 855 25.25 -1.6 29.1 75 -5.5 22.1
07:00 1026 30.3 855 25.25 -1.7 28.9 76 -5.4 22.3
07:05 1026 30.3 855 25.25 -2.1 28.2 78 -5.4 22.2
07:10 1026 30.3 855 25.25 -2.4 27.7 79 -5.6 21.9
07:15 1026 30.3 855 25.25 -2.3 27.8 78 -5.7 21.8
07:20 1026 30.3 855 25.25 -2.2 28 79 -5.3 22.5
07:25 1026 30.3 855 25.25 -2.2 28 81 -5.1 22.8
07:30 1026 30.3 855 25.25 -2.1 28.3 79 -5.2 22.7
07:35 1026 30.3 855 25.25 -2 28.5 80 -5 23
07:40 1026 30.3 855 25.25 -2.2 28.1 80 -5.2 22.7
07:45 1026 30.3 855 25.25 -1.9 28.6 78 -5.3 22.4
07:50 1026 30.3 855 25.25 -1.6 29.1 76 -5.3 22.5
07:55 1026 30.3 855 25.25 -1.4 29.5 75 -5.2 22.6
08:00 1026 30.3 855 25.25 -1.3 29.6 76 -5.1 22.8
08:05 1026 30.3 855 25.25 -1.3 29.7 74 -5.3 22.5
08:10 1026 30.3 855 25.25 -1.5 29.3 76 -5.2 22.7
08:15 1026 30.3 855 25.25 -2 28.5 79 -5.2 22.7
08:20 1026 30.3 855 25.25 -2.3 27.8 80 -5.4 22.3
08:25 1026 30.3 855 25.25 -2.4 27.6 80 -5.5 22.1
08:30 1026 30.3 855 25.25 -2.3 27.9 79 -5.4 22.2
08:35 1026 30.3 855 25.25 -2 28.5 78 -5.3 22.5
08:40 1026 30.3 856 25.28 -1.8 28.8 78 -5.2 22.7
08:45 1026 30.3 856 25.28 -1.6 29.1 76 -5.2 22.6
08:50 1026 30.3 856 25.28 -1.2 29.9 74 -5.2 22.6
08:55 1026 30.3 856 25.28 -0.8 30.5 73 -5 23
09:00 1026 30.3 856 25.28 -0.7 30.8 73 -4.9 23.2
09:05 1026 30.3 856 25.28 -0.7 30.7 73 -5 23.1
09:10 1027 30.33 856 25.28 -0.4 31.3 70 -5.2 22.6
09:15 1027 30.33 856 25.28 0.3 32.6 67 -5 23
09:20 1027 30.33 856 25.28 1.1 34 66 -4.6 23.7
09:25 1027 30.33 856 25.28 1.1 34 68 -4.2 24.4
09:30 1027 30.33 856 25.28 0.9 33.7 67 -4.5 23.9
09:35 1027 30.33 856 25.28 1.5 34.6 65 -4.4 24.2
09:40 1027 30.33 856 25.28 1.7 35 65 -4.2 24.4
09:45 1027 30.33 856 25.28 1.6 34.9 66 -4.1 24.5
09:50 1027 30.33 856 25.28 1.7 35.1 66 -4 24.8
09:55 1027 30.33 856 25.28 1.9 35.5 64 -4.1 24.6
10:00 1027 30.33 856 25.28 2.1 35.7 64 -4.1 24.6
10:05 1027 30.33 856 25.28 2.2 36 63 -4.1 24.5
10:10 1027 30.33 856 25.28 2.5 36.5 61 -4.2 24.4
10:15 1027 30.33 856 25.28 2.8 37 61 -3.9 25
10:20 1027 30.33 856 25.28 2.8 37 61 -4 24.7
10:25 1027 30.33 856 25.28 2.9 37.2 60 -4 24.8
10:30 1027 30.33 856 25.28 3.3 37.9 61 -3.4 25.8
10:35 1027 30.33 856 25.28 3.4 38.1 58 -4 24.8
10:40 1027 30.33 856 25.28 3.6 38.4 58 -3.8 25.1
10:45 1026 30.3 856 25.28 3.6 38.5 57 -4.2 24.4
10:50 1026 30.3 856 25.28 3.9 39 58 -3.7 25.4
10:55 1026 30.3 856 25.28 4.1 39.4 59 -3.2 26.2
11:00 1026 30.3 856 25.28 3.8 38.9 61 -2.9 26.8
11:05 1026 30.3 856 25.28 3.6 38.5 61 -3.2 26.2
11:10 1026 30.3 855 25.25 4.2 39.6 56 -3.8 25.1
11:15 1026 30.3 855 25.25 4.8 40.6 53 -3.8 25.1
11:20 1026 30.3 855 25.25 5.1 41.1 55 -3.3 26
11:25 1026 30.3 855 25.25 5.4 41.6 54 -3.1 26.4
11:30 1026 30.3 855 25.25 5.2 41.4 54 -3.2 26.2
11:35 1026 30.3 855 25.25 5 41 56 -3 26.6
11:40 1026 30.3 855 25.25 5 41 55 -3.4 26
11:45 1026 30.3 855 25.25 5.2 41.3 52 -3.8 25.2
11:50 1026 30.3 855 25.25 5.4 41.8 48 -4.6 23.7
11:55 1026 30.3 855 25.25 5.7 42.3 48 -4.5 23.8
12:00 1026 30.3 855 25.25 6.3 43.4 44 -4.9 23.2
12:05 1026 30.3 855 25.25 6.5 43.6 47 -4.1 24.6
12:10 1026 30.3 855 25.25 6.6 44 46 -4.3 24.3
12:15 1026 30.3 855 25.25 7.3 45.1 41 -5.2 22.7
12:20 1026 30.3 855 25.25 8.2 46.7 39 -5.1 22.9
12:25 1026 30.3 855 25.25 8.7 47.6 34 -6.3 20.6
12:30 1026 30.3 855 25.25 9 48.1 35 -5.8 21.5
12:35 1026 30.3 855 25.25 9.2 48.6 35 -5.6 21.9
12:40 1026 30.3 855 25.25 9.3 48.7 33 -6 21.1
12:45 1026 30.3 855 25.25 9.1 48.3 34 -6.1 21
12:50 1026 30.3 855 25.25 9.3 48.7 33 -6 21.2
12:55 1026 30.3 855 25.25 8.7 47.7 35 -5.7 21.8
13:00 1026 30.3 855 25.25 9 48.3 35 -5.6 22
13:05 1026 30.3 855 25.25 9.4 49 34 -5.5 22.1
13:10 1025 30.27 855 25.25 9.3 48.8 35 -5.3 22.4
13:15 1025 30.27 855 25.25 9.3 48.7 35 -5.4 22.3
13:20 1025 30.27 854 25.22 9.2 48.6 35 -5.4 22.3
13:25 1025 30.27 854 25.22 9.7 49.5 34 -5.3 22.4
13:30 1025 30.27 854 25.22 10.2 50.4 33 -5.2 22.6
13:35 1025 30.27 854 25.22 9.7 49.4 35 -5 23
13:40 1025 30.27 854 25.22 9.1 48.4 36 -5 23
13:45 1025 30.27 854 25.22 9.5 49.1 33 -6 21.2
13:50 1025 30.27 854 25.22 9.8 49.6 34 -5.4 22.2
13:55 1025 30.27 854 25.22 10.6 51.1 31 -5.6 21.8
14:00 1025 30.27 854 25.22 10.9 51.6 34 -4.3 24.3
14:05 1025 30.27 854 25.22 11 51.8 30 -5.7 21.7
14:10 1024 30.24 854 25.22 11.6 53 30 -5.1 22.7
14:15 1024 30.24 854 25.22 10.8 51.4 32 -5.1 22.9
14:20 1024 30.24 854 25.22 11.1 51.9 31 -5.2 22.6
14:25 1024 30.24 854 25.22 11.7 53.1 29 -5.8 21.6
14:30 1024 30.24 853 25.19 11.6 53 30 -5.3 22.4
14:35 1024 30.24 853 25.19 11.6 52.8 31 -4.9 23.1
14:40 1024 30.24 853 25.19 11.6 52.9 30 -5.5 22.1
14:45 1024 30.24 853 25.19 11.9 53.5 29 -5.4 22.3
14:50 1024 30.24 853 25.19 12 53.5 30 -5.1 22.9
14:55 1024 30.24 853 25.19 12.5 54.4 28 -5.6 21.9
15:00 1024 30.24 853 25.19 12.8 55.1 28 -5.2 22.6
15:05 1024 30.24 853 25.19 12.8 55.1 29 -4.8 23.4
15:10 1024 30.24 853 25.19 12.6 54.6 29 -5.1 22.9
15:15 1024 30.24 853 25.19 12.6 54.8 29 -5 23
15:20 1023 30.21 853 25.19 11.7 53 31 -4.8 23.4
15:25 1023 30.21 853 25.19 11.4 52.5 32 -4.6 23.8
15:30 1023 30.21 852 25.16 12 53.6 30 -5.2 22.6
15:35 1023 30.21 852 25.16 12.8 55 29 -4.8 23.4
15:40 1023 30.21 852 25.16 12.4 54.4 32 -3.6 25.5
15:45 1023 30.21 852 25.16 11.9 53.5 30 -5 23.1
15:50 1023 30.21 852 25.16 12.5 54.4 29 -4.9 23.2
15:55 1023 30.21 852 25.16 12.2 53.9 30 -4.8 23.3
16:00 1023 30.21 852 25.16 12.1 53.7 30 -5 23
16:05 1023 30.21 852 25.16 12.5 54.5 28 -5.3 22.5
16:10 1023 30.21 852 25.16 12.3 54.1 30 -4.9 23.2
16:15 1023 30.21 852 25.16 12.6 54.6 28 -5.5 22.2
16:20 1023 30.21 852 25.16 12.6 54.7 29 -5 23.1
16:25 1023 30.21 852 25.16 12.1 53.8 29 -5.3 22.5
16:30 1023 30.21 852 25.16 12.7 54.8 29 -4.9 23.3
16:35 1023 30.21 852 25.16 12.4 54.3 29 -5.2 22.6
16:40 1023 30.21 852 25.16 12.6 54.7 28 -5.3 22.5
16:45 1023 30.21 852 25.16 12.7 54.9 28 -5.5 22.1
16:50 1023 30.21 852 25.16 12.3 54.1 29 -5.2 22.6
16:55 1023 30.21 852 25.16 12.4 54.4 29 -5.2 22.7
17:00 1023 30.21 852 25.16 12 53.6 29 -5.3 22.5
17:05 1023 30.21 852 25.16 11.5 52.6 31 -5.2 22.7
17:10 1023 30.21 852 25.16 11.2 52.1 30 -5.6 21.9
17:15 1023 30.21 852 25.16 10.9 51.7 30 -5.8 21.6
17:20 1023 30.21 852 25.16 10.9 51.5 31 -5.8 21.6
17:25 1023 30.21 852 25.16 11.1 51.9 30 -5.7 21.7
17:30 1023 30.21 852 25.16 10.9 51.7 31 -5.6 21.9
17:35 1023 30.21 852 25.16 10.8 51.4 31 -5.8 21.5
17:40 1023 30.21 852 25.16 10.5 50.9 31 -5.8 21.5
17:45 1023 30.21 852 25.16 10.6 51.1 30 -6.2 20.8
17:50 1023 30.21 852 25.16 10.5 50.9 31 -6 21.1
17:55 1023 30.21 852 25.16 10.5 50.9 39 -2.7 27.1
18:00 1023 30.21 852 25.16 9.4 48.8 48 -1 30.1
18:05 1023 30.21 852 25.16 8.5 47.4 49 -1.4 29.4
18:10 1023 30.21 852 25.16 7.8 46 55 -0.7 30.7
18:15 1023 30.21 852 25.16 6.8 44.2 58 -0.9 30.4
18:20 1023 30.21 852 25.16 6.5 43.6 60 -0.8 30.5
18:25 1022 30.18 852 25.16 5.9 42.6 61 -1 30.3
18:30 1022 30.18 852 25.16 5.5 42 62 -1.2 29.8
18:35 1022 30.18 852 25.16 5.5 41.9 62 -1.2 29.9
18:40 1022 30.18 852 25.16 5.2 41.4 63 -1.3 29.6
18:45 1023 30.21 852 25.16 5.2 41.4 62 -1.4 29.4
18:50 1023 30.21 852 25.16 5.1 41.2 64 -1.2 29.9
18:55 1023 30.21 852 25.16 4.9 40.8 65 -1.2 29.8
19:00 1023 30.21 852 25.16 4.7 40.5 66 -1.1 30
19:05 1023 30.21 852 25.16 4.3 39.8 67 -1.2 29.9
19:10 1023 30.21 852 25.16 4.1 39.3 67 -1.4 29.4
19:15 1023 30.21 852 25.16 4 39.2 67 -1.6 29.1
19:20 1023 30.21 852 25.16 4 39.2 65 -1.9 28.6
19:25 1023 30.21 852 25.16 4.1 39.4 65 -2 28.5
19:30 1022 30.18 852 25.16 4.1 39.3 64 -2.1 28.2
19:35 1023 30.21 852 25.16 3.9 39 65 -2.2 28.1
19:40 1023 30.21 852 25.16 3.8 38.8 66 -2 28.4
19:45 1022 30.18 852 25.16 3.5 38.3 67 -2 28.4
19:50 1022 30.18 852 25.16 3.2 37.8 67 -2.2 28
19:55 1022 30.18 852 25.16 3.1 37.6 64 -3 26.6
20:00 1022 30.18 852 25.16 3.2 37.8 63 -3.1 26.4
20:05 1022 30.18 852 25.16 3.4 38.2 59 -3.7 25.3
20:10 1022 30.18 852 25.16 3.8 38.8 59 -3.5 25.7
20:15 1022 30.18 852 25.16 4 39.1 57 -3.7 25.4
20:20 1022 30.18 852 25.16 3.9 39.1 58 -3.5 25.7
20:25 1022 30.18 852 25.16 3.9 39 58 -3.7 25.3
20:30 1022 30.18 852 25.16 3.9 39 59 -3.4 25.9
20:35 1022 30.18 852 25.16 3.8 38.8 59 -3.6 25.5
20:40 1022 30.18 851 25.13 4 39.2 58 -3.6 25.5
20:45 1022 30.18 852 25.16 4 39.3 59 -3.3 26.1
20:50 1022 30.18 851 25.13 4 39.1 58 -3.5 25.7
20:55 1022 30.18 851 25.13 3.8 38.9 60 -3.3 26
21:00 1022 30.18 851 25.13 3.7 38.6 59 -3.5 25.6
21:05 1022 30.18 851 25.13 3.6 38.5 59 -3.7 25.3
21:10 1022 30.18 851 25.13 3.9 39.1 57 -3.9 25
21:15 1022 30.18 851 25.13 4.2 39.5 57 -3.6 25.5
21:20 1022 30.18 851 25.13 4.2 39.6 57 -3.6 25.6
21:25 1022 30.18 851 25.13 4.2 39.5 58 -3.4 25.9
21:30 1022 30.18 851 25.13 4 39.1 58 -3.6 25.5
21:35 1022 30.18 851 25.13 4 39.3 57 -3.7 25.4
21:40 1022 30.18 851 25.13 4.2 39.5 56 -3.7 25.3
21:45 1022 30.18 851 25.13 4.3 39.7 57 -3.4 25.8
21:50 1022 30.18 851 25.13 4.2 39.6 56 -3.7 25.4
21:55 1022 30.18 851 25.13 4.2 39.5 56 -3.8 25.2
22:00 1022 30.18 851 25.13 3.9 39.1 58 -3.7 25.4
22:05 1022 30.18 851 25.13 3.6 38.5 58 -3.8 25.1
22:10 1022 30.18 851 25.13 3.5 38.3 56 -4.4 24.1
22:15 1022 30.18 851 25.13 3.6 38.6 55 -4.4 24
22:20 1022 30.18 851 25.13 3.7 38.7 56 -4.3 24.2
22:25 1022 30.18 851 25.13 3.8 38.9 55 -4.4 24
22:30 1022 30.18 851 25.13 3.9 39.1 55 -4.4 24.1
22:35 1022 30.18 851 25.13 3.6 38.5 57 -4.1 24.6
22:40 1022 30.18 851 25.13 3.2 37.7 58 -4.3 24.3
22:45 1022 30.18 851 25.13 2.9 37.1 58 -4.6 23.7
22:50 1022 30.18 851 25.13 3 37.5 54 -5.3 22.4
22:55 1022 30.18 851 25.13 3.5 38.4 55 -4.7 23.6
23:00 1022 30.18 851 25.13 3.2 37.8 56 -4.7 23.5
23:05 1022 30.18 851 25.13 3.1 37.5 55 -5 23
23:10 1022 30.18 851 25.13 3.2 37.8 55 -4.9 23.2
23:15 1022 30.18 851 25.13 3.1 37.6 56 -4.9 23.3
23:20 1022 30.18 851 25.13 3.1 37.5 53 -5.7 21.8
23:25 1022 30.18 851 25.13 3.7 38.7 51 -5.5 22.1
23:30 1022 30.18 851 25.13 3.7 38.6 53 -4.9 23.1
23:35 1022 30.18 851 25.13 3.3 38 54 -5.2 22.7
23:40 1022 30.18 851 25.13 3.3 37.9 56 -4.8 23.4
23:45 1022 30.18 851 25.13 3.2 37.8 57 -4.5 23.9
23:50 1022 30.18 851 25.13 3 37.5 55 -5.1 22.9
23:55 1022 30.18 851 25.13 3.1 37.6 54 -5.2 22.6
24:00 1022 30.18 851 25.13 3.2 37.8 55 -4.9 23.2